Time;durP1;ratioP1;P1;durP2;ratioP2;P2;SDS_P1;SDS_P2;PMS_P1;PMS_P2;Temp;Humidity;BMP_temperature;BMP_pressure;BME280_temperature;BME280_humidity;BME280_pressure;Samples;Min_cycle;Max_cycle;Signal;HPM_P1;HPM_P2
2023/12/31 00:00:10;;;;;;;10.55;4.68;;;7.80;99.90;;;;;;5034520;28;20256;-60
2023/12/31 00:02:38;;;;;;;8.25;5.10;;;7.80;99.90;;;;;;5029340;28;20252;-60
2023/12/31 00:05:06;;;;;;;11.27;4.95;;;7.70;99.90;;;;;;5030380;28;20207;-59
2023/12/31 00:07:34;;;;;;;8.52;5.32;;;7.70;99.90;;;;;;5026018;28;20202;-60
2023/12/31 00:10:04;;;;;;;9.25;5.47;;;7.70;99.90;;;;;;5023881;28;20242;-59
2023/12/31 00:12:32;;;;;;;8.38;5.32;;;7.60;99.90;;;;;;5033992;28;20203;-59
2023/12/31 00:15:00;;;;;;;9.57;5.45;;;7.60;99.90;;;;;;5033868;28;20726;-59
2023/12/31 00:17:27;;;;;;;7.85;5.50;;;7.50;99.90;;;;;;5033427;28;20238;-59
2023/12/31 00:19:55;;;;;;;9.32;5.70;;;7.50;99.90;;;;;;5033447;28;20789;-59
2023/12/31 00:22:23;;;;;;;9.35;5.43;;;7.40;99.90;;;;;;5033532;28;20199;-59
2023/12/31 00:24:54;;;;;;;7.45;5.65;;;7.30;99.90;;;;;;5033173;28;20276;-58
2023/12/31 00:27:23;;;;;;;7.20;4.93;;;7.30;99.90;;;;;;5027246;28;20202;-58
2023/12/31 00:29:51;;;;;;;6.65;5.35;;;7.20;99.90;;;;;;5031703;28;20223;-59
2023/12/31 00:32:19;;;;;;;8.30;5.20;;;7.20;99.90;;;;;;5026913;28;20315;-60
2023/12/31 00:34:47;;;;;;;6.60;4.88;;;7.10;99.90;;;;;;5022679;28;20212;-61
2023/12/31 00:37:15;;;;;;;8.32;4.93;;;7.10;99.90;;;;;;5017934;28;20483;-60
2023/12/31 00:39:42;;;;;;;7.35;4.93;;;7.10;99.90;;;;;;5030431;28;20234;-60
2023/12/31 00:42:10;;;;;;;6.07;5.07;;;7.00;99.90;;;;;;5033189;28;20631;-60
2023/12/31 00:44:39;;;;;;;6.35;5.00;;;7.00;99.90;;;;;;5033212;28;20239;-60
2023/12/31 00:47:07;;;;;;;6.75;4.85;;;7.00;99.90;;;;;;5032976;28;20214;-60
2023/12/31 00:49:35;;;;;;;9.25;4.32;;;7.00;99.90;;;;;;5033257;28;20258;-60
2023/12/31 00:52:03;;;;;;;8.73;4.80;;;6.90;99.90;;;;;;5033033;28;20231;-61
2023/12/31 00:54:31;;;;;;;7.38;4.65;;;6.90;99.90;;;;;;5032950;28;20799;-60
2023/12/31 00:56:59;;;;;;;7.25;4.03;;;6.90;99.90;;;;;;5023008;28;20207;-60
2023/12/31 00:59:27;;;;;;;6.47;4.43;;;6.90;99.90;;;;;;5033124;28;20269;-61
2023/12/31 01:01:56;;;;;;;4.95;4.22;;;6.80;99.90;;;;;;5030564;28;20227;-61
2023/12/31 01:04:24;;;;;;;8.05;3.55;;;6.80;99.90;;;;;;5032824;28;20218;-61
2023/12/31 01:06:52;;;;;;;4.28;3.88;;;6.80;99.90;;;;;;5023109;28;20207;-60
2023/12/31 01:09:20;;;;;;;8.38;4.20;;;6.70;99.90;;;;;;5033132;28;20356;-60
2023/12/31 01:11:48;;;;;;;8.55;4.40;;;6.70;99.90;;;;;;5032778;28;20222;-61
2023/12/31 01:14:16;;;;;;;7.13;4.40;;;6.60;99.90;;;;;;5032920;28;20207;-61
2023/12/31 01:16:44;;;;;;;6.88;3.78;;;6.60;99.90;;;;;;5032439;28;20207;-61
2023/12/31 01:19:16;;;;;;;5.00;3.40;;;6.60;99.90;;;;;;5029398;28;20223;-61
2023/12/31 01:21:43;;;;;;;4.55;3.67;;;6.60;99.90;;;;;;5027258;28;20224;-60
2023/12/31 01:24:11;;;;;;;3.92;3.53;;;6.50;99.90;;;;;;5032615;28;20305;-61
2023/12/31 01:26:39;;;;;;;5.20;3.47;;;6.40;99.90;;;;;;5032690;28;20245;-59
2023/12/31 01:29:07;;;;;;;5.25;3.90;;;6.40;99.90;;;;;;5032285;28;20230;-61
2023/12/31 01:31:35;;;;;;;5.60;3.67;;;6.40;99.90;;;;;;5032239;28;20296;-61
2023/12/31 01:34:03;;;;;;;5.28;3.25;;;6.40;99.90;;;;;;5032504;28;20294;-60
2023/12/31 01:36:32;;;;;;;3.88;3.50;;;6.40;99.90;;;;;;5032610;28;20289;-61
2023/12/31 01:39:00;;;;;;;4.72;3.40;;;6.30;99.90;;;;;;5032056;28;20280;-60
2023/12/31 01:41:29;;;;;;;7.43;3.85;;;6.30;99.90;;;;;;5032415;28;20253;-59
2023/12/31 01:44:02;;;;;;;6.43;3.17;;;6.30;99.90;;;;;;5031990;28;20612;-59
2023/12/31 01:46:31;;;;;;;5.38;3.50;;;6.30;99.90;;;;;;5026354;28;20261;-59
2023/12/31 01:48:59;;;;;;;5.32;3.38;;;6.30;99.90;;;;;;5031786;28;20258;-60
2023/12/31 01:51:28;;;;;;;6.32;3.38;;;6.30;99.90;;;;;;5032305;28;20234;-58
2023/12/31 01:53:59;;;;;;;4.10;3.25;;;6.30;99.90;;;;;;5031678;28;20276;-59
2023/12/31 01:56:28;;;;;;;4.15;3.28;;;6.30;99.90;;;;;;5026532;28;20237;-59
2023/12/31 01:58:56;;;;;;;4.53;3.38;;;6.20;99.90;;;;;;5032002;28;20634;-59
2023/12/31 02:01:24;;;;;;;3.83;3.05;;;6.20;99.90;;;;;;5031555;28;20203;-60
2023/12/31 02:03:52;;;;;;;4.25;3.40;;;6.20;99.90;;;;;;5031551;28;20260;-59
2023/12/31 02:06:20;;;;;;;7.47;3.50;;;6.20;99.90;;;;;;5031845;28;20207;-59
2023/12/31 02:08:47;;;;;;;5.93;3.35;;;6.20;99.90;;;;;;5023553;28;20313;-60
2023/12/31 02:11:17;;;;;;;7.43;3.00;;;6.20;99.90;;;;;;5021053;28;20242;-60
2023/12/31 02:13:45;;;;;;;4.47;3.65;;;6.20;99.90;;;;;;5030855;28;20297;-58
2023/12/31 02:16:14;;;;;;;4.65;3.10;;;6.20;99.90;;;;;;5031889;28;20565;-59
2023/12/31 02:18:42;;;;;;;5.28;2.92;;;6.10;99.90;;;;;;5031203;28;20237;-60
2023/12/31 02:21:10;;;;;;;3.65;2.65;;;6.10;99.90;;;;;;5022753;28;20238;-59
2023/12/31 02:23:38;;;;;;;6.15;2.70;;;6.20;99.90;;;;;;5031432;28;20269;-59
2023/12/31 02:26:08;;;;;;;4.65;3.15;;;6.20;99.90;;;;;;5031601;28;20613;-59
2023/12/31 02:28:36;;;;;;;5.40;2.95;;;6.20;99.90;;;;;;5031294;28;20318;-60
2023/12/31 02:31:04;;;;;;;4.95;3.00;;;6.20;99.90;;;;;;5030989;28;20206;-58
2023/12/31 02:33:32;;;;;;;3.35;2.72;;;6.10;99.90;;;;;;5031106;28;20314;-59
2023/12/31 02:36:00;;;;;;;6.68;3.17;;;6.20;99.90;;;;;;5031521;28;20211;-59
2023/12/31 02:38:29;;;;;;;4.47;2.90;;;6.20;99.90;;;;;;5030967;28;20210;-57
2023/12/31 02:40:56;;;;;;;3.88;2.95;;;6.20;99.90;;;;;;5022680;28;20265;-60
2023/12/31 02:43:26;;;;;;;3.08;2.88;;;6.10;99.90;;;;;;5030818;28;20246;-60
2023/12/31 02:45:54;;;;;;;4.50;2.78;;;6.10;99.90;;;;;;5031070;28;21081;-61
2023/12/31 02:48:22;;;;;;;3.63;2.50;;;6.10;99.90;;;;;;5030604;28;20226;-62
2023/12/31 02:50:50;;;;;;;5.00;2.70;;;6.10;99.90;;;;;;5031267;28;20671;-62
2023/12/31 02:53:17;;;;;;;5.15;2.88;;;6.10;99.90;;;;;;5030805;28;20782;-62
2023/12/31 02:55:45;;;;;;;5.60;2.58;;;6.00;99.90;;;;;;5031241;28;20202;-62
2023/12/31 02:58:13;;;;;;;4.60;3.28;;;6.00;99.90;;;;;;5030331;28;20234;-62
2023/12/31 03:00:43;;;;;;;7.55;2.88;;;6.00;99.90;;;;;;5031191;28;20198;-63
2023/12/31 03:03:11;;;;;;;5.45;3.40;;;6.00;99.90;;;;;;5030583;28;20203;-62
2023/12/31 03:05:40;;;;;;;5.25;3.10;;;6.00;99.90;;;;;;5031149;28;20203;-61
2023/12/31 03:08:08;;;;;;;5.45;3.28;;;6.00;99.90;;;;;;5030742;28;20213;-62
2023/12/31 03:10:36;;;;;;;5.10;3.78;;;6.00;99.90;;;;;;5030793;28;20325;-62
2023/12/31 03:13:04;;;;;;;5.07;3.75;;;6.00;99.90;;;;;;5030098;28;20227;-62
2023/12/31 03:15:32;;;;;;;13.15;5.13;;;6.00;99.90;;;;;;5031278;28;20206;-62
2023/12/31 03:18:02;;;;;;;6.78;4.80;;;6.00;99.90;;;;;;5030519;28;20694;-62
2023/12/31 03:20:30;;;;;;;6.20;3.88;;;6.00;99.90;;;;;;5031500;28;20261;-61
2023/12/31 03:22:58;;;;;;;5.68;3.85;;;6.00;99.90;;;;;;5030300;28;20620;-62
2023/12/31 03:25:26;;;;;;;4.97;3.38;;;6.00;99.90;;;;;;5032802;28;20208;-62
2023/12/31 03:27:53;;;;;;;3.05;2.78;;;6.00;99.90;;;;;;5034582;28;20207;-62
2023/12/31 03:30:21;;;;;;;5.47;2.85;;;6.00;99.90;;;;;;5026852;28;20257;-61
2023/12/31 03:32:49;;;;;;;3.42;2.53;;;6.00;99.90;;;;;;5034347;28;20806;-62
2023/12/31 03:35:18;;;;;;;4.95;2.80;;;6.00;99.90;;;;;;5034698;28;20589;-61
2023/12/31 03:37:47;;;;;;;4.68;2.97;;;6.00;99.90;;;;;;5034296;28;20215;-62
2023/12/31 03:40:16;;;;;;;3.55;2.63;;;6.00;99.90;;;;;;5026453;28;20272;-61
2023/12/31 03:42:44;;;;;;;4.35;2.70;;;6.00;99.90;;;;;;5034527;28;20282;-61
2023/12/31 03:45:11;;;;;;;6.05;3.00;;;6.00;99.90;;;;;;5034272;28;20246;-61
2023/12/31 03:47:39;;;;;;;5.57;2.85;;;6.00;99.90;;;;;;5034159;28;20288;-61
2023/12/31 03:50:09;;;;;;;4.30;2.47;;;6.00;99.90;;;;;;5032772;28;20230;-60
2023/12/31 03:52:38;;;;;;;2.80;2.60;;;6.00;99.90;;;;;;5034385;28;20322;-62
2023/12/31 03:55:07;;;;;;;5.53;2.42;;;6.00;99.90;;;;;;5024172;28;20245;-61
2023/12/31 03:57:35;;;;;;;4.32;2.63;;;6.00;99.90;;;;;;5034009;28;20209;-62
2023/12/31 04:00:04;;;;;;;3.72;2.80;;;6.00;99.90;;;;;;5057665;22;20261;-60
2023/12/31 04:02:32;;;;;;;3.47;2.17;;;6.00;99.90;;;;;;5034236;28;20198;-60
2023/12/31 04:05:00;;;;;;;3.00;2.60;;;6.00;99.90;;;;;;5044624;28;20644;-60
2023/12/31 04:07:28;;;;;;;5.35;2.47;;;6.00;99.90;;;;;;5034606;28;20302;-61
2023/12/31 04:09:57;;;;;;;2.65;2.40;;;6.00;99.90;;;;;;5033613;28;20719;-61
2023/12/31 04:12:25;;;;;;;4.13;3.05;;;6.00;99.90;;;;;;5044662;28;20201;-59
2023/12/31 04:14:53;;;;;;;7.72;3.03;;;6.10;99.90;;;;;;5053485;28;20748;-61
2023/12/31 04:17:21;;;;;;;4.90;2.65;;;6.10;99.90;;;;;;5053418;28;20236;-61
2023/12/31 04:19:49;;;;;;;4.10;2.75;;;6.10;99.90;;;;;;5046373;28;20572;-59
2023/12/31 04:22:17;;;;;;;6.18;2.28;;;6.10;99.90;;;;;;5052972;28;20237;-58
2023/12/31 04:24:46;;;;;;;4.57;2.22;;;6.10;99.90;;;;;;5053825;28;20296;-59
2023/12/31 04:27:15;;;;;;;4.18;2.38;;;6.20;99.90;;;;;;5053459;28;20691;-59
2023/12/31 04:29:43;;;;;;;2.75;2.45;;;6.10;99.90;;;;;;5053283;28;20703;-60
2023/12/31 04:32:10;;;;;;;6.88;2.53;;;6.10;99.90;;;;;;5053925;28;20252;-61
2023/12/31 04:34:38;;;;;;;4.13;2.63;;;6.10;99.90;;;;;;5053069;28;20283;-59
2023/12/31 04:37:06;;;;;;;8.32;2.28;;;6.10;99.90;;;;;;5052686;28;20210;-61
2023/12/31 04:39:34;;;;;;;2.72;2.50;;;6.10;99.90;;;;;;5053263;28;20275;-60
2023/12/31 04:42:03;;;;;;;4.65;2.20;;;6.00;99.90;;;;;;5045276;28;20745;-60
2023/12/31 04:44:32;;;;;;;5.70;2.30;;;6.00;99.90;;;;;;5050908;28;20649;-60
2023/12/31 04:47:00;;;;;;;4.78;2.42;;;6.00;99.90;;;;;;5037321;28;20237;-60
2023/12/31 04:49:28;;;;;;;7.53;2.10;;;6.00;99.90;;;;;;5045122;28;20312;-61
2023/12/31 04:51:55;;;;;;;3.33;2.28;;;6.00;99.90;;;;;;5053500;28;20212;-61
2023/12/31 04:54:23;;;;;;;3.53;2.45;;;5.90;99.90;;;;;;5052899;28;20226;-61
2023/12/31 04:56:51;;;;;;;3.17;2.65;;;5.90;99.90;;;;;;5052936;28;20297;-61
2023/12/31 04:59:19;;;;;;;3.95;2.33;;;5.80;99.90;;;;;;5052529;28;20313;-60
2023/12/31 05:01:51;;;;;;;2.47;2.00;;;5.80;99.90;;;;;;5053402;28;20210;-60
2023/12/31 05:04:19;;;;;;;4.78;1.90;;;5.80;99.90;;;;;;5052544;28;20256;-59
2023/12/31 05:06:47;;;;;;;5.07;2.20;;;5.80;99.90;;;;;;5053047;28;20210;-61
2023/12/31 05:09:16;;;;;;;5.30;2.10;;;5.80;99.90;;;;;;5052213;28;20222;-59
2023/12/31 05:11:44;;;;;;;4.05;2.53;;;5.80;99.90;;;;;;5052784;28;20328;-60
2023/12/31 05:14:12;;;;;;;3.88;2.45;;;5.80;99.90;;;;;;5052677;28;20702;-61
2023/12/31 05:16:40;;;;;;;2.00;1.90;;;5.90;99.90;;;;;;5052827;28;20205;-59
2023/12/31 05:19:09;;;;;;;3.05;2.60;;;5.90;99.90;;;;;;5044096;28;20230;-61
2023/12/31 05:21:39;;;;;;;2.53;2.30;;;5.90;99.90;;;;;;5052949;28;20292;-61
2023/12/31 05:24:07;;;;;;;7.63;2.55;;;5.90;99.90;;;;;;5052332;28;20233;-60
2023/12/31 05:26:35;;;;;;;6.20;2.60;;;5.90;99.90;;;;;;5052763;28;20281;-61
2023/12/31 05:29:03;;;;;;;2.33;2.20;;;5.90;99.90;;;;;;5052395;28;20312;-61
2023/12/31 05:31:31;;;;;;;2.75;2.42;;;5.90;99.90;;;;;;5052759;28;20236;-61
2023/12/31 05:33:59;;;;;;;3.88;2.42;;;5.90;99.90;;;;;;5051722;28;20695;-59
2023/12/31 05:36:28;;;;;;;5.30;2.40;;;5.90;99.90;;;;;;5052243;28;20213;-61
2023/12/31 05:38:56;;;;;;;4.50;2.60;;;6.00;99.90;;;;;;5052131;28;20230;-60
2023/12/31 05:41:24;;;;;;;4.47;2.20;;;6.00;99.90;;;;;;5052004;28;20233;-60
2023/12/31 05:43:52;;;;;;;4.03;2.38;;;6.00;99.90;;;;;;5052051;28;20205;-60
2023/12/31 05:46:20;;;;;;;3.60;2.45;;;6.00;99.90;;;;;;5052148;28;20709;-60
2023/12/31 05:48:48;;;;;;;3.38;1.80;;;6.00;99.90;;;;;;5050751;28;20206;-60
2023/12/31 05:51:16;;;;;;;2.53;2.33;;;6.00;99.90;;;;;;5041277;28;21623;-60
2023/12/31 05:53:45;;;;;;;6.45;2.30;;;6.00;99.90;;;;;;5048108;28;20235;-59
2023/12/31 05:56:13;;;;;;;3.17;2.67;;;6.00;99.90;;;;;;5052118;28;20210;-61
2023/12/31 05:58:42;;;;;;;4.50;2.83;;;6.00;99.90;;;;;;5051839;28;20208;-61
2023/12/31 06:01:11;;;;;;;3.13;2.50;;;6.00;99.90;;;;;;5051859;28;20271;-61
2023/12/31 06:03:39;;;;;;;4.82;2.20;;;6.00;99.90;;;;;;5051501;28;20681;-60
2023/12/31 06:06:07;;;;;;;3.30;2.60;;;6.10;99.90;;;;;;5051883;28;20210;-61
2023/12/31 06:08:35;;;;;;;2.85;2.50;;;6.10;99.90;;;;;;5051643;28;20291;-59
2023/12/31 06:11:05;;;;;;;4.43;3.08;;;6.10;99.90;;;;;;5051973;28;20332;-60
2023/12/31 06:13:32;;;;;;;3.83;2.90;;;6.10;99.90;;;;;;5051218;28;20229;-59
2023/12/31 06:16:01;;;;;;;5.05;2.92;;;6.10;99.90;;;;;;5051573;28;20206;-61
2023/12/31 06:18:29;;;;;;;4.63;2.80;;;6.10;99.90;;;;;;5047780;28;20237;-60
2023/12/31 06:20:57;;;;;;;3.88;2.75;;;6.10;99.90;;;;;;5046454;28;20226;-60
2023/12/31 06:23:25;;;;;;;3.88;2.83;;;6.10;99.90;;;;;;5051172;28;21121;-62
2023/12/31 06:25:52;;;;;;;4.00;3.58;;;6.10;99.90;;;;;;5051833;28;20240;-59
2023/12/31 06:28:22;;;;;;;6.13;3.20;;;6.20;99.90;;;;;;5051296;28;20292;-59
2023/12/31 06:30:50;;;;;;;5.90;4.82;;;6.20;99.90;;;;;;5051453;28;20609;-58
2023/12/31 06:33:18;;;;;;;6.90;3.80;;;6.20;99.90;;;;;;5050765;28;20587;-58
2023/12/31 06:35:46;;;;;;;4.03;3.13;;;6.20;99.90;;;;;;5051016;28;20230;-62
2023/12/31 06:38:13;;;;;;;5.47;2.83;;;6.20;99.90;;;;;;5051047;28;20706;-60
2023/12/31 06:40:41;;;;;;;3.42;2.28;;;6.20;99.90;;;;;;5045827;28;20333;-61
2023/12/31 06:43:10;;;;;;;3.35;2.70;;;6.30;99.90;;;;;;5035760;28;20217;-61
2023/12/31 06:45:40;;;;;;;4.18;2.47;;;6.30;99.90;;;;;;5052444;28;20198;-61
2023/12/31 06:48:08;;;;;;;2.50;2.30;;;6.30;99.90;;;;;;5045237;28;20206;-61
2023/12/31 06:50:36;;;;;;;2.78;2.22;;;6.30;99.90;;;;;;5050618;28;20228;-61
2023/12/31 06:53:04;;;;;;;2.78;2.53;;;6.30;99.90;;;;;;5042732;28;20287;-62
2023/12/31 06:55:32;;;;;;;7.15;2.85;;;6.30;99.90;;;;;;5050708;28;20218;-61
2023/12/31 06:58:00;;;;;;;3.55;2.53;;;6.30;99.90;;;;;;5045158;28;20257;-60
2023/12/31 07:00:28;;;;;;;3.28;2.50;;;6.40;99.90;;;;;;5047357;28;20607;-62
2023/12/31 07:02:57;;;;;;;2.63;2.35;;;6.40;99.90;;;;;;5036024;28;20206;-62
2023/12/31 07:05:25;;;;;;;2.42;2.22;;;6.40;99.90;;;;;;5041387;28;20299;-62
2023/12/31 07:07:53;;;;;;;4.32;2.30;;;6.40;99.90;;;;;;5050830;28;20202;-61
2023/12/31 07:10:22;;;;;;;5.28;2.65;;;6.40;99.90;;;;;;5050326;28;20706;-62
2023/12/31 07:12:50;;;;;;;3.17;2.88;;;6.40;99.90;;;;;;5051092;28;20206;-62
2023/12/31 07:15:17;;;;;;;3.08;2.60;;;6.40;99.90;;;;;;5050665;28;20261;-64
2023/12/31 07:17:45;;;;;;;6.20;2.42;;;6.40;99.90;;;;;;5050712;28;20953;-64
2023/12/31 07:20:16;;;;;;;2.60;2.40;;;6.40;99.90;;;;;;5049803;28;20641;-63
2023/12/31 07:22:44;;;;;;;4.78;2.47;;;6.40;99.90;;;;;;5047677;28;20263;-62
2023/12/31 07:25:13;;;;;;;4.65;2.50;;;6.40;99.90;;;;;;5041395;28;20290;-62
2023/12/31 07:27:40;;;;;;;4.15;2.20;;;6.40;99.90;;;;;;5050515;28;20217;-63
2023/12/31 07:30:09;;;;;;;3.72;2.17;;;6.40;99.90;;;;;;5050236;28;20258;-62
2023/12/31 07:32:38;;;;;;;9.95;2.55;;;6.40;99.90;;;;;;5037978;28;20206;-63
2023/12/31 07:35:07;;;;;;;2.90;2.70;;;6.50;99.90;;;;;;5045427;28;20226;-62
2023/12/31 07:37:38;;;;;;;3.53;2.80;;;6.50;99.90;;;;;;5035614;28;20202;-64
2023/12/31 07:40:06;;;;;;;2.67;2.17;;;6.50;99.90;;;;;;5050381;28;20234;-62
2023/12/31 07:42:35;;;;;;;3.15;2.90;;;6.50;99.90;;;;;;5036095;28;20202;-62
2023/12/31 07:45:04;;;;;;;3.75;2.47;;;6.50;99.90;;;;;;5050564;28;20206;-62
2023/12/31 07:47:35;;;;;;;2.58;2.38;;;6.50;99.90;;;;;;5050470;28;20281;-63
2023/12/31 07:50:03;;;;;;;5.65;2.70;;;6.50;99.90;;;;;;5049739;28;20722;-62
2023/12/31 07:52:31;;;;;;;2.47;2.25;;;6.50;99.90;;;;;;5049910;28;20884;-62
2023/12/31 07:55:00;;;;;;;3.03;2.15;;;6.50;99.90;;;;;;5049679;28;20218;-62
2023/12/31 07:57:28;;;;;;;3.25;2.38;;;6.50;99.90;;;;;;5050383;28;20202;-62
2023/12/31 07:59:56;;;;;;;5.40;2.55;;;6.60;99.90;;;;;;5049613;28;20730;-62
2023/12/31 08:02:24;;;;;;;2.92;2.42;;;6.60;99.90;;;;;;5048962;28;20213;-63
2023/12/31 08:04:52;;;;;;;2.67;2.47;;;6.60;99.90;;;;;;5047892;28;20206;-63
2023/12/31 08:07:20;;;;;;;2.47;2.28;;;6.50;99.90;;;;;;5047764;28;20238;-63
2023/12/31 08:09:48;;;;;;;8.30;2.47;;;6.60;99.90;;;;;;5049171;28;20317;-63
2023/12/31 08:12:17;;;;;;;5.32;2.42;;;6.60;99.90;;;;;;5050874;28;20289;-63
2023/12/31 08:14:45;;;;;;;4.40;2.17;;;6.60;99.90;;;;;;5053736;28;20272;-63
2023/12/31 08:17:13;;;;;;;3.03;2.45;;;6.60;99.90;;;;;;5053296;28;20739;-63
2023/12/31 08:19:41;;;;;;;3.65;2.50;;;6.70;99.90;;;;;;5053504;28;20257;-63
2023/12/31 08:22:09;;;;;;;4.53;2.78;;;6.70;99.90;;;;;;5054002;28;20202;-62
2023/12/31 08:24:36;;;;;;;4.57;3.90;;;6.70;99.90;;;;;;5047184;28;20260;-63
2023/12/31 08:27:04;;;;;;;4.68;3.92;;;6.70;99.90;;;;;;5053745;28;20296;-63
2023/12/31 08:29:34;;;;;;;3.25;2.60;;;6.70;99.90;;;;;;5053188;28;20261;-63
2023/12/31 08:32:03;;;;;;;3.45;2.63;;;6.70;99.90;;;;;;5053708;28;20298;-63
2023/12/31 08:34:31;;;;;;;4.07;2.60;;;6.80;99.90;;;;;;5045121;28;20206;-63
2023/12/31 08:36:59;;;;;;;2.58;2.38;;;6.70;99.90;;;;;;5053295;28;20254;-63
2023/12/31 08:39:27;;;;;;;5.25;2.20;;;6.80;99.90;;;;;;5051861;28;20784;-63
2023/12/31 08:41:55;;;;;;;2.78;2.55;;;6.80;99.90;;;;;;5051914;28;20301;-61
2023/12/31 08:44:23;;;;;;;8.25;3.00;;;6.90;99.90;;;;;;5049342;28;20234;-62
2023/12/31 08:46:52;;;;;;;2.97;2.55;;;6.90;99.90;;;;;;5052585;28;20225;-62
2023/12/31 08:49:20;;;;;;;2.97;2.70;;;6.90;99.90;;;;;;5052788;28;20244;-61
2023/12/31 08:51:48;;;;;;;4.55;2.88;;;6.90;99.90;;;;;;5051809;28;20212;-61
2023/12/31 08:54:15;;;;;;;3.65;2.35;;;7.00;99.90;;;;;;5049776;28;20618;-62
2023/12/31 08:56:43;;;;;;;3.05;2.60;;;7.00;99.90;;;;;;5051853;28;20717;-62
2023/12/31 08:59:13;;;;;;;4.50;3.35;;;7.00;99.90;;;;;;5051238;28;20324;-62
2023/12/31 09:01:41;;;;;;;3.67;2.60;;;7.00;99.90;;;;;;5046327;28;20229;-62
2023/12/31 09:04:10;;;;;;;3.17;2.97;;;7.10;99.90;;;;;;5049102;28;20324;-63
2023/12/31 09:06:38;;;;;;;2.30;2.10;;;7.10;99.90;;;;;;5044453;28;20206;-64
2023/12/31 09:09:06;;;;;;;2.38;2.17;;;7.10;99.90;;;;;;5052842;28;20229;-63
2023/12/31 09:11:38;;;;;;;3.72;2.65;;;7.20;99.90;;;;;;5052751;28;20287;-63
2023/12/31 09:14:05;;;;;;;2.55;2.42;;;7.20;99.90;;;;;;5053030;28;20296;-63
2023/12/31 09:16:33;;;;;;;3.45;2.30;;;7.20;99.90;;;;;;5052682;28;20317;-63
2023/12/31 09:19:01;;;;;;;3.47;2.45;;;7.20;99.90;;;;;;5052140;28;20210;-63
2023/12/31 09:21:30;;;;;;;4.07;2.30;;;7.20;99.90;;;;;;5052125;28;20730;-62
2023/12/31 09:23:58;;;;;;;2.20;1.95;;;7.20;99.90;;;;;;5052394;28;20264;-62
2023/12/31 09:26:26;;;;;;;3.90;1.98;;;7.20;99.90;;;;;;5052387;28;20226;-62
2023/12/31 09:28:54;;;;;;;2.28;2.03;;;7.20;99.90;;;;;;5052049;28;20302;-62
2023/12/31 09:31:25;;;;;;;3.45;2.22;;;7.30;99.90;;;;;;5033226;28;20205;-62
2023/12/31 09:33:53;;;;;;;2.08;1.98;;;7.30;99.90;;;;;;5044479;28;20264;-62
2023/12/31 09:36:21;;;;;;;3.15;1.88;;;7.30;99.90;;;;;;5036826;28;20280;-61
2023/12/31 09:38:51;;;;;;;3.67;2.47;;;7.30;99.90;;;;;;5034982;28;20234;-62
2023/12/31 09:41:22;;;;;;;2.20;1.73;;;7.40;99.90;;;;;;5031644;28;20237;-62
2023/12/31 09:43:52;;;;;;;3.72;2.35;;;7.40;99.90;;;;;;5032868;28;20211;-63
2023/12/31 09:46:20;;;;;;;2.55;2.35;;;7.50;99.90;;;;;;5032287;28;20238;-62
2023/12/31 09:48:48;;;;;;;2.15;2.00;;;7.50;99.90;;;;;;5031551;28;20216;-63
2023/12/31 09:51:17;;;;;;;5.70;2.10;;;7.60;99.90;;;;;;5034887;28;20206;-63
2023/12/31 09:53:45;;;;;;;4.47;2.38;;;7.70;99.90;;;;;;5031983;28;20294;-62
2023/12/31 09:56:16;;;;;;;2.35;2.20;;;7.70;99.90;;;;;;5032156;28;20226;-63
2023/12/31 09:58:44;;;;;;;2.78;2.58;;;7.80;99.90;;;;;;5031087;28;20755;-63
2023/12/31 10:01:25;;;;;;;2.92;2.67;;;7.90;99.90;;;;;;5034502;28;20202;-63
2023/12/31 10:03:52;;;;;;;2.67;2.30;;;7.90;99.90;;;;;;5059098;22;20527;-75
2023/12/31 10:06:20;;;;;;;3.38;2.63;;;7.90;99.90;;;;;;5044619;28;20614;-76
2023/12/31 10:08:48;;;;;;;2.92;2.72;;;8.00;99.90;;;;;;5036977;28;20241;-78
2023/12/31 10:11:18;;;;;;;3.58;2.88;;;8.00;99.90;;;;;;5032439;28;20314;-75
2023/12/31 10:13:46;;;;;;;2.90;2.60;;;8.10;99.90;;;;;;5022653;28;20264;-75
2023/12/31 10:16:15;;;;;;;3.42;3.13;;;8.10;99.90;;;;;;5031957;28;20225;-75
2023/12/31 10:18:43;;;;;;;2.88;2.60;;;8.10;99.90;;;;;;5028700;28;20298;-75
2023/12/31 10:21:12;;;;;;;3.33;3.03;;;8.20;99.90;;;;;;5028050;28;20310;-75
2023/12/31 10:23:40;;;;;;;2.80;2.60;;;8.20;99.90;;;;;;5035661;28;20677;-75
2023/12/31 10:26:08;;;;;;;4.28;3.28;;;8.20;99.90;;;;;;5020599;28;20245;-75
2023/12/31 10:28:37;;;;;;;3.67;2.92;;;8.20;99.90;;;;;;5031714;28;20644;-75
2023/12/31 10:31:06;;;;;;;2.60;2.40;;;8.30;99.90;;;;;;5031901;28;20226;-75
2023/12/31 10:33:37;;;;;;;3.95;2.80;;;8.30;99.90;;;;;;5031919;28;20728;-75
2023/12/31 10:36:06;;;;;;;3.17;2.88;;;8.30;99.90;;;;;;5031043;28;20299;-75
2023/12/31 10:38:49;;;;;;;3.67;3.22;;;8.30;99.90;;;;;;5034009;28;20210;-75
2023/12/31 10:41:20;;;;;;;2.95;2.72;;;8.40;99.90;;;;;;5037049;28;20247;-75
2023/12/31 10:43:50;;;;;;;2.92;2.65;;;8.40;99.90;;;;;;5024600;28;20268;-75
2023/12/31 10:46:19;;;;;;;4.15;2.90;;;8.40;99.90;;;;;;5028810;28;20234;-75
2023/12/31 10:48:48;;;;;;;4.22;2.90;;;8.40;99.90;;;;;;5035923;28;20218;-74
2023/12/31 10:51:22;;;;;;;3.20;2.83;;;8.50;99.90;;;;;;5025613;28;20256;-75
2023/12/31 10:53:50;;;;;;;4.40;3.13;;;8.50;99.90;;;;;;5024511;28;20210;-75
2023/12/31 10:56:18;;;;;;;2.63;2.42;;;8.50;99.90;;;;;;5027076;28;20233;-75
2023/12/31 10:58:47;;;;;;;3.17;2.45;;;8.50;99.90;;;;;;5016479;28;20247;-75
2023/12/31 11:01:19;;;;;;;2.70;2.50;;;8.60;99.90;;;;;;5017499;28;20223;-75
2023/12/31 11:03:47;;;;;;;4.00;2.85;;;8.60;99.90;;;;;;5020960;28;20219;-75
2023/12/31 11:06:15;;;;;;;2.53;2.33;;;8.60;99.90;;;;;;5016797;28;20207;-75
2023/12/31 11:08:44;;;;;;;2.15;2.00;;;8.60;99.90;;;;;;5019513;28;20836;-75
2023/12/31 11:11:12;;;;;;;2.60;2.40;;;8.70;99.90;;;;;;5026522;28;20317;-75
2023/12/31 11:13:41;;;;;;;2.63;2.47;;;8.70;99.90;;;;;;5032766;28;20253;-75
2023/12/31 11:16:15;;;;;;;3.97;3.05;;;8.70;99.90;;;;;;5035262;28;20210;-75
2023/12/31 11:18:59;;;;;;;4.70;4.30;;;8.70;99.90;;;;;;5031164;28;20584;-75
2023/12/31 11:21:38;;;;;;;5.70;3.58;;;8.70;99.90;;;;;;5039961;28;20227;-75
2023/12/31 11:24:13;;;;;;;4.10;2.72;;;8.70;99.90;;;;;;5035991;28;20727;-75
2023/12/31 11:26:41;;;;;;;3.85;3.47;;;8.70;99.90;;;;;;5031597;28;20888;-75
2023/12/31 11:29:10;;;;;;;3.75;3.40;;;8.60;99.90;;;;;;5034553;28;20244;-75
2023/12/31 11:31:40;;;;;;;4.30;3.10;;;8.50;99.90;;;;;;5030134;28;20719;-75
2023/12/31 11:34:10;;;;;;;4.10;3.30;;;8.50;99.90;;;;;;5025714;28;20637;-75
2023/12/31 11:36:38;;;;;;;3.53;3.22;;;8.40;99.90;;;;;;5030754;28;20592;-75
2023/12/31 11:39:14;;;;;;;6.97;3.72;;;8.40;99.90;;;;;;5014087;28;20302;-75
2023/12/31 11:41:44;;;;;;;3.40;3.13;;;8.50;99.90;;;;;;5023177;28;20245;-75
2023/12/31 11:44:36;;;;;;;4.88;3.30;;;8.50;99.90;;;;;;5027372;28;20218;-75
2023/12/31 11:47:12;;;;;;;3.75;3.33;;;8.50;99.90;;;;;;5033883;28;20203;-75
2023/12/31 11:49:45;;;;;;;4.32;2.90;;;8.50;99.90;;;;;;5034718;28;20268;-75
2023/12/31 11:52:13;;;;;;;4.03;3.63;;;8.50;99.90;;;;;;5035291;28;20215;-75
2023/12/31 11:54:41;;;;;;;4.28;3.63;;;8.50;99.90;;;;;;5035013;28;20242;-75
2023/12/31 11:57:10;;;;;;;4.10;3.70;;;8.50;99.90;;;;;;5037970;28;20226;-76
2023/12/31 11:59:39;;;;;;;5.82;3.50;;;8.50;99.90;;;;;;5017468;28;20211;-75
2023/12/31 12:02:07;;;;;;;5.22;3.05;;;8.60;99.90;;;;;;5015584;28;20246;-75
2023/12/31 12:04:35;;;;;;;3.70;3.40;;;8.60;99.90;;;;;;5016634;28;20699;-75
2023/12/31 12:07:05;;;;;;;4.32;3.35;;;8.60;99.90;;;;;;5028210;28;20209;-75
2023/12/31 12:09:34;;;;;;;2.85;2.60;;;8.60;99.90;;;;;;5034331;28;20237;-75
2023/12/31 12:12:03;;;;;;;4.45;3.00;;;8.70;99.90;;;;;;5034493;28;20668;-75
2023/12/31 12:14:31;;;;;;;3.92;2.85;;;8.60;99.90;;;;;;5041320;28;20756;-75
2023/12/31 12:16:59;;;;;;;2.85;2.70;;;8.60;99.90;;;;;;5019178;28;20302;-75
2023/12/31 12:19:27;;;;;;;5.28;2.90;;;8.60;99.90;;;;;;5033857;28;20214;-75
2023/12/31 12:21:57;;;;;;;3.22;2.97;;;8.60;99.90;;;;;;5034758;28;20250;-75
2023/12/31 12:24:27;;;;;;;2.63;2.53;;;8.60;99.90;;;;;;5034147;28;20207;-75
2023/12/31 12:26:55;;;;;;;2.40;2.20;;;8.60;99.90;;;;;;5025731;28;20223;-75
2023/12/31 12:29:22;;;;;;;3.42;2.08;;;8.60;99.90;;;;;;5033937;28;20642;-75
2023/12/31 12:31:50;;;;;;;3.90;2.10;;;8.70;99.90;;;;;;5034504;28;20262;-75
2023/12/31 12:34:18;;;;;;;3.95;2.13;;;8.70;99.90;;;;;;5034227;28;20230;-75
2023/12/31 12:36:47;;;;;;;3.25;1.60;;;8.70;99.90;;;;;;5033975;28;20226;-75
2023/12/31 12:39:15;;;;;;;2.75;1.73;;;8.70;99.90;;;;;;5035262;28;20215;-75
2023/12/31 12:41:48;;;;;;;1.85;1.30;;;8.70;99.90;;;;;;5016755;28;20779;-75
2023/12/31 12:44:16;;;;;;;2.03;0.80;;;8.80;99.90;;;;;;5033852;28;20202;-75
2023/12/31 12:46:45;;;;;;;1.38;0.70;;;8.80;99.90;;;;;;5033909;28;20297;-75
2023/12/31 12:49:13;;;;;;;0.77;0.70;;;8.90;99.90;;;;;;5025888;28;20205;-75
2023/12/31 12:51:41;;;;;;;1.45;0.43;;;9.00;99.90;;;;;;5032121;28;20231;-75
2023/12/31 12:54:09;;;;;;;0.50;0.47;;;9.00;99.90;;;;;;5013988;28;20235;-75
2023/12/31 12:56:37;;;;;;;2.80;0.43;;;9.00;99.90;;;;;;5013887;28;20253;-75
2023/12/31 12:59:06;;;;;;;1.00;0.60;;;9.10;99.90;;;;;;5018356;28;20232;-75
2023/12/31 13:01:34;;;;;;;0.88;0.70;;;9.10;99.90;;;;;;5033801;28;20749;-75
2023/12/31 13:04:02;;;;;;;1.02;0.68;;;9.20;99.90;;;;;;5033850;28;20257;-75